sensor_id;sensor_type;location;lat;lon;timestamp;P1;durP1;ratioP1;P2;durP2;ratioP2
17283;SDS011;8760;52.248;20.952;2023-09-12T00:00:21;29.88;;;20.48;;
17283;SDS011;8760;52.248;20.952;2023-09-12T00:02:49;24.58;;;19.73;;
17283;SDS011;8760;52.248;20.952;2023-09-12T00:05:16;32.10;;;20.15;;
17283;SDS011;8760;52.248;20.952;2023-09-12T00:07:43;25.90;;;19.00;;
17283;SDS011;8760;52.248;20.952;2023-09-12T00:10:10;26.33;;;19.08;;
17283;SDS011;8760;52.248;20.952;2023-09-12T00:12:37;28.52;;;20.40;;
17283;SDS011;8760;52.248;20.952;2023-09-12T00:15:04;24.85;;;19.85;;
17283;SDS011;8760;52.248;20.952;2023-09-12T00:17:31;27.23;;;19.52;;
17283;SDS011;8760;52.248;20.952;2023-09-12T00:20:01;28.58;;;19.30;;
17283;SDS011;8760;52.248;20.952;2023-09-12T00:22:29;23.48;;;19.08;;
17283;SDS011;8760;52.248;20.952;2023-09-12T00:24:56;23.77;;;19.25;;
17283;SDS011;8760;52.248;20.952;2023-09-12T00:27:22;27.67;;;18.55;;
17283;SDS011;8760;52.248;20.952;2023-09-12T00:29:49;27.13;;;19.77;;
17283;SDS011;8760;52.248;20.952;2023-09-12T00:32:16;25.13;;;19.17;;
17283;SDS011;8760;52.248;20.952;2023-09-12T00:34:43;27.05;;;19.60;;
17283;SDS011;8760;52.248;20.952;2023-09-12T00:37:11;26.63;;;19.33;;
17283;SDS011;8760;52.248;20.952;2023-09-12T00:39:38;27.50;;;19.48;;
17283;SDS011;8760;52.248;20.952;2023-09-12T00:42:05;23.83;;;19.15;;
17283;SDS011;8760;52.248;20.952;2023-09-12T00:44:32;26.45;;;19.02;;
17283;SDS011;8760;52.248;20.952;2023-09-12T00:47:00;23.88;;;19.65;;
17283;SDS011;8760;52.248;20.952;2023-09-12T00:49:27;26.83;;;18.67;;
17283;SDS011;8760;52.248;20.952;2023-09-12T00:51:55;26.90;;;20.02;;
17283;SDS011;8760;52.248;20.952;2023-09-12T00:54:24;22.20;;;18.77;;
17283;SDS011;8760;52.248;20.952;2023-09-12T00:56:51;25.80;;;18.63;;
17283;SDS011;8760;52.248;20.952;2023-09-12T00:59:18;22.73;;;18.08;;
17283;SDS011;8760;52.248;20.952;2023-09-12T01:01:45;20.38;;;18.15;;
17283;SDS011;8760;52.248;20.952;2023-09-12T01:04:13;20.38;;;17.50;;
17283;SDS011;8760;52.248;20.952;2023-09-12T01:06:40;21.05;;;17.60;;
17283;SDS011;8760;52.248;20.952;2023-09-12T01:09:07;25.33;;;19.02;;
17283;SDS011;8760;52.248;20.952;2023-09-12T01:11:36;23.27;;;18.15;;
17283;SDS011;8760;52.248;20.952;2023-09-12T01:14:03;20.75;;;18.40;;
17283;SDS011;8760;52.248;20.952;2023-09-12T01:16:30;21.00;;;18.00;;
17283;SDS011;8760;52.248;20.952;2023-09-12T01:18:57;22.27;;;19.35;;
17283;SDS011;8760;52.248;20.952;2023-09-12T01:24:51;23.25;;;17.92;;
17283;SDS011;8760;52.248;20.952;2023-09-12T01:27:42;27.88;;;19.02;;
17283;SDS011;8760;52.248;20.952;2023-09-12T01:30:16;22.48;;;18.92;;
17283;SDS011;8760;52.248;20.952;2023-09-12T01:32:45;25.38;;;19.00;;
17283;SDS011;8760;52.248;20.952;2023-09-12T01:35:12;24.85;;;18.70;;
17283;SDS011;8760;52.248;20.952;2023-09-12T01:37:39;21.17;;;18.92;;
17283;SDS011;8760;52.248;20.952;2023-09-12T01:40:06;23.35;;;18.30;;
17283;SDS011;8760;52.248;20.952;2023-09-12T01:42:35;21.73;;;17.65;;
17283;SDS011;8760;52.248;20.952;2023-09-12T01:45:05;23.85;;;18.33;;
17283;SDS011;8760;52.248;20.952;2023-09-12T01:47:35;26.38;;;18.42;;
17283;SDS011;8760;52.248;20.952;2023-09-12T01:50:03;21.98;;;18.95;;
17283;SDS011;8760;52.248;20.952;2023-09-12T01:52:34;25.77;;;18.75;;
17283;SDS011;8760;52.248;20.952;2023-09-12T01:55:02;26.38;;;18.50;;
17283;SDS011;8760;52.248;20.952;2023-09-12T01:57:30;25.50;;;18.48;;
17283;SDS011;8760;52.248;20.952;2023-09-12T01:59:57;20.33;;;18.05;;
17283;SDS011;8760;52.248;20.952;2023-09-12T02:02:26;23.48;;;18.13;;
17283;SDS011;8760;52.248;20.952;2023-09-12T02:04:54;22.20;;;18.95;;
17283;SDS011;8760;52.248;20.952;2023-09-12T02:07:29;25.00;;;18.80;;
17283;SDS011;8760;52.248;20.952;2023-09-12T02:09:59;20.33;;;18.23;;
17283;SDS011;8760;52.248;20.952;2023-09-12T02:12:26;23.63;;;19.60;;
17283;SDS011;8760;52.248;20.952;2023-09-12T02:14:53;24.20;;;17.67;;
17283;SDS011;8760;52.248;20.952;2023-09-12T02:17:20;20.52;;;17.33;;
17283;SDS011;8760;52.248;20.952;2023-09-12T02:19:50;23.92;;;19.65;;
17283;SDS011;8760;52.248;20.952;2023-09-12T02:22:17;22.73;;;18.67;;
17283;SDS011;8760;52.248;20.952;2023-09-12T02:24:44;21.75;;;18.48;;
17283;SDS011;8760;52.248;20.952;2023-09-12T02:27:10;27.17;;;18.45;;
17283;SDS011;8760;52.248;20.952;2023-09-12T02:29:38;22.73;;;18.45;;
17283;SDS011;8760;52.248;20.952;2023-09-12T02:32:05;23.30;;;18.25;;
17283;SDS011;8760;52.248;20.952;2023-09-12T02:34:32;22.67;;;18.88;;
17283;SDS011;8760;52.248;20.952;2023-09-12T02:37:01;26.17;;;19.73;;
17283;SDS011;8760;52.248;20.952;2023-09-12T02:39:28;22.63;;;17.85;;
17283;SDS011;8760;52.248;20.952;2023-09-12T02:41:54;23.58;;;18.88;;
17283;SDS011;8760;52.248;20.952;2023-09-12T02:44:21;21.98;;;19.55;;
17283;SDS011;8760;52.248;20.952;2023-09-12T02:46:49;20.80;;;18.50;;
17283;SDS011;8760;52.248;20.952;2023-09-12T02:49:16;26.27;;;18.63;;
17283;SDS011;8760;52.248;20.952;2023-09-12T02:51:44;24.75;;;19.15;;
17283;SDS011;8760;52.248;20.952;2023-09-12T02:54:13;21.65;;;18.88;;
17283;SDS011;8760;52.248;20.952;2023-09-12T02:56:40;25.58;;;20.05;;
17283;SDS011;8760;52.248;20.952;2023-09-12T02:59:07;24.35;;;18.60;;
17283;SDS011;8760;52.248;20.952;2023-09-12T03:01:34;22.50;;;19.92;;
17283;SDS011;8760;52.248;20.952;2023-09-12T03:04:00;25.92;;;19.83;;
17283;SDS011;8760;52.248;20.952;2023-09-12T03:06:28;21.33;;;19.08;;
17283;SDS011;8760;52.248;20.952;2023-09-12T03:08:55;27.48;;;19.90;;
17283;SDS011;8760;52.248;20.952;2023-09-12T03:11:25;21.50;;;19.30;;
17283;SDS011;8760;52.248;20.952;2023-09-12T03:13:52;26.30;;;19.98;;
17283;SDS011;8760;52.248;20.952;2023-09-12T03:16:19;24.52;;;19.33;;
17283;SDS011;8760;52.248;20.952;2023-09-12T03:18:48;21.90;;;19.35;;
17283;SDS011;8760;52.248;20.952;2023-09-12T03:21:15;23.30;;;19.00;;
17283;SDS011;8760;52.248;20.952;2023-09-12T03:23:41;21.92;;;19.67;;
17283;SDS011;8760;52.248;20.952;2023-09-12T03:26:08;23.80;;;18.50;;
17283;SDS011;8760;52.248;20.952;2023-09-12T03:28:37;25.52;;;20.05;;
17283;SDS011;8760;52.248;20.952;2023-09-12T03:31:05;22.90;;;19.20;;
17283;SDS011;8760;52.248;20.952;2023-09-12T03:33:33;22.17;;;18.58;;
17283;SDS011;8760;52.248;20.952;2023-09-12T03:36:00;22.25;;;19.48;;
17283;SDS011;8760;52.248;20.952;2023-09-12T03:38:27;22.58;;;19.45;;
17283;SDS011;8760;52.248;20.952;2023-09-12T03:40:53;23.17;;;20.30;;
17283;SDS011;8760;52.248;20.952;2023-09-12T03:43:21;25.30;;;19.83;;
17283;SDS011;8760;52.248;20.952;2023-09-12T03:45:49;29.48;;;20.98;;
17283;SDS011;8760;52.248;20.952;2023-09-12T03:48:16;23.73;;;20.13;;
17283;SDS011;8760;52.248;20.952;2023-09-12T03:50:43;24.45;;;19.25;;
17283;SDS011;8760;52.248;20.952;2023-09-12T03:53:11;26.02;;;19.95;;
17283;SDS011;8760;52.248;20.952;2023-09-12T03:55:39;22.17;;;19.77;;
17283;SDS011;8760;52.248;20.952;2023-09-12T03:58:06;25.15;;;20.10;;
17283;SDS011;8760;52.248;20.952;2023-09-12T04:00:33;22.52;;;19.95;;
17283;SDS011;8760;52.248;20.952;2023-09-12T04:03:01;27.02;;;20.15;;
17283;SDS011;8760;52.248;20.952;2023-09-12T04:05:28;21.88;;;19.63;;
17283;SDS011;8760;52.248;20.952;2023-09-12T04:07:55;23.40;;;20.20;;
17283;SDS011;8760;52.248;20.952;2023-09-12T04:10:22;23.17;;;20.13;;
17283;SDS011;8760;52.248;20.952;2023-09-12T04:12:49;23.52;;;20.55;;
17283;SDS011;8760;52.248;20.952;2023-09-12T04:15:16;21.90;;;19.55;;
17283;SDS011;8760;52.248;20.952;2023-09-12T04:17:43;29.45;;;20.67;;
17283;SDS011;8760;52.248;20.952;2023-09-12T04:20:11;26.13;;;20.58;;
17283;SDS011;8760;52.248;20.952;2023-09-12T04:22:39;24.75;;;19.83;;
17283;SDS011;8760;52.248;20.952;2023-09-12T04:25:06;23.42;;;20.90;;
17283;SDS011;8760;52.248;20.952;2023-09-12T04:27:33;25.80;;;21.27;;
17283;SDS011;8760;52.248;20.952;2023-09-12T04:30:00;24.48;;;20.83;;
17283;SDS011;8760;52.248;20.952;2023-09-12T04:32:28;25.77;;;20.52;;
17283;SDS011;8760;52.248;20.952;2023-09-12T04:34:55;28.90;;;21.85;;
17283;SDS011;8760;52.248;20.952;2023-09-12T04:37:24;26.85;;;23.92;;
17283;SDS011;8760;52.248;20.952;2023-09-12T04:39:50;24.15;;;21.58;;
17283;SDS011;8760;52.248;20.952;2023-09-12T04:42:17;25.90;;;21.55;;
17283;SDS011;8760;52.248;20.952;2023-09-12T04:44:44;27.38;;;21.40;;
17283;SDS011;8760;52.248;20.952;2023-09-12T04:47:11;24.02;;;20.75;;
17283;SDS011;8760;52.248;20.952;2023-09-12T04:49:38;28.85;;;22.13;;
17283;SDS011;8760;52.248;20.952;2023-09-12T04:52:05;23.73;;;21.20;;
17283;SDS011;8760;52.248;20.952;2023-09-12T04:54:33;24.63;;;21.98;;
17283;SDS011;8760;52.248;20.952;2023-09-12T04:57:01;26.38;;;21.38;;
17283;SDS011;8760;52.248;20.952;2023-09-12T04:59:30;27.05;;;22.02;;
17283;SDS011;8760;52.248;20.952;2023-09-12T05:01:57;27.77;;;22.52;;
17283;SDS011;8760;52.248;20.952;2023-09-12T05:04:24;24.55;;;21.90;;
17283;SDS011;8760;52.248;20.952;2023-09-12T05:06:51;27.38;;;22.13;;
17283;SDS011;8760;52.248;20.952;2023-09-12T05:09:18;25.88;;;22.02;;
17283;SDS011;8760;52.248;20.952;2023-09-12T05:11:46;24.95;;;21.17;;
17283;SDS011;8760;52.248;20.952;2023-09-12T05:14:13;30.00;;;21.02;;
17283;SDS011;8760;52.248;20.952;2023-09-12T05:16:40;26.90;;;20.17;;
17283;SDS011;8760;52.248;20.952;2023-09-12T05:19:07;20.73;;;18.48;;
17283;SDS011;8760;52.248;20.952;2023-09-12T05:21:34;23.33;;;20.42;;
17283;SDS011;8760;52.248;20.952;2023-09-12T05:24:00;30.95;;;20.83;;
17283;SDS011;8760;52.248;20.952;2023-09-12T05:26:27;25.85;;;21.13;;
17283;SDS011;8760;52.248;20.952;2023-09-12T05:28:56;25.92;;;21.05;;
17283;SDS011;8760;52.248;20.952;2023-09-12T05:31:22;25.50;;;22.90;;
17283;SDS011;8760;52.248;20.952;2023-09-12T05:33:49;23.65;;;19.83;;
17283;SDS011;8760;52.248;20.952;2023-09-12T05:36:16;27.60;;;20.40;;
17283;SDS011;8760;52.248;20.952;2023-09-12T05:38:43;22.52;;;20.30;;
17283;SDS011;8760;52.248;20.952;2023-09-12T05:41:10;24.95;;;20.80;;
17283;SDS011;8760;52.248;20.952;2023-09-12T05:43:37;23.08;;;20.67;;
17283;SDS011;8760;52.248;20.952;2023-09-12T05:46:05;24.05;;;20.55;;
17283;SDS011;8760;52.248;20.952;2023-09-12T05:48:32;23.02;;;20.00;;
17283;SDS011;8760;52.248;20.952;2023-09-12T05:50:59;23.02;;;20.60;;
17283;SDS011;8760;52.248;20.952;2023-09-12T05:53:25;27.13;;;20.40;;
17283;SDS011;8760;52.248;20.952;2023-09-12T05:55:52;26.98;;;20.80;;
17283;SDS011;8760;52.248;20.952;2023-09-12T05:58:19;31.17;;;21.75;;
17283;SDS011;8760;52.248;20.952;2023-09-12T06:00:46;27.55;;;21.73;;
17283;SDS011;8760;52.248;20.952;2023-09-12T06:03:15;27.48;;;21.65;;
17283;SDS011;8760;52.248;20.952;2023-09-12T06:05:42;24.50;;;20.92;;
17283;SDS011;8760;52.248;20.952;2023-09-12T06:08:09;29.45;;;22.05;;
17283;SDS011;8760;52.248;20.952;2023-09-12T06:10:36;30.67;;;21.85;;
17283;SDS011;8760;52.248;20.952;2023-09-12T06:13:03;32.05;;;23.85;;
17283;SDS011;8760;52.248;20.952;2023-09-12T06:15:32;33.65;;;24.27;;
17283;SDS011;8760;52.248;20.952;2023-09-12T06:17:59;32.00;;;23.67;;
17283;SDS011;8760;52.248;20.952;2023-09-12T06:20:27;30.00;;;22.23;;
17283;SDS011;8760;52.248;20.952;2023-09-12T06:22:54;31.85;;;23.25;;
17283;SDS011;8760;52.248;20.952;2023-09-12T06:25:21;32.85;;;19.88;;
17283;SDS011;8760;52.248;20.952;2023-09-12T06:27:48;24.00;;;19.25;;
17283;SDS011;8760;52.248;20.952;2023-09-12T06:30:15;27.13;;;19.15;;
17283;SDS011;8760;52.248;20.952;2023-09-12T06:32:42;24.33;;;17.30;;
17283;SDS011;8760;52.248;20.952;2023-09-12T06:35:09;22.60;;;16.92;;
17283;SDS011;8760;52.248;20.952;2023-09-12T06:37:37;24.38;;;16.67;;
17283;SDS011;8760;52.248;20.952;2023-09-12T06:40:05;24.02;;;17.88;;
17283;SDS011;8760;52.248;20.952;2023-09-12T06:42:33;31.05;;;19.25;;
17283;SDS011;8760;52.248;20.952;2023-09-12T06:45:02;24.02;;;16.95;;
17283;SDS011;8760;52.248;20.952;2023-09-12T06:47:30;25.98;;;17.15;;
17283;SDS011;8760;52.248;20.952;2023-09-12T06:49:56;24.30;;;17.10;;
17283;SDS011;8760;52.248;20.952;2023-09-12T06:52:23;21.95;;;15.32;;
17283;SDS011;8760;52.248;20.952;2023-09-12T06:54:52;30.98;;;17.25;;
17283;SDS011;8760;52.248;20.952;2023-09-12T06:57:19;22.60;;;15.80;;
17283;SDS011;8760;52.248;20.952;2023-09-12T06:59:46;21.63;;;15.70;;
17283;SDS011;8760;52.248;20.952;2023-09-12T07:02:14;25.00;;;15.93;;
17283;SDS011;8760;52.248;20.952;2023-09-12T07:04:43;25.23;;;17.20;;
17283;SDS011;8760;52.248;20.952;2023-09-12T07:07:10;25.40;;;15.80;;
17283;SDS011;8760;52.248;20.952;2023-09-12T07:09:37;26.30;;;16.50;;
17283;SDS011;8760;52.248;20.952;2023-09-12T07:12:06;25.77;;;15.82;;
17283;SDS011;8760;52.248;20.952;2023-09-12T07:14:33;25.13;;;15.95;;
17283;SDS011;8760;52.248;20.952;2023-09-12T07:17:05;23.92;;;14.82;;
17283;SDS011;8760;52.248;20.952;2023-09-12T07:19:32;25.33;;;16.08;;
17283;SDS011;8760;52.248;20.952;2023-09-12T07:21:59;21.40;;;14.32;;
17283;SDS011;8760;52.248;20.952;2023-09-12T07:24:27;27.65;;;13.93;;
17283;SDS011;8760;52.248;20.952;2023-09-12T07:26:54;19.70;;;14.32;;
17283;SDS011;8760;52.248;20.952;2023-09-12T07:29:24;20.98;;;12.77;;
17283;SDS011;8760;52.248;20.952;2023-09-12T07:31:51;21.38;;;13.30;;
17283;SDS011;8760;52.248;20.952;2023-09-12T07:34:19;18.50;;;12.63;;
17283;SDS011;8760;52.248;20.952;2023-09-12T07:36:46;18.52;;;12.30;;
17283;SDS011;8760;52.248;20.952;2023-09-12T07:39:16;17.65;;;13.00;;
17283;SDS011;8760;52.248;20.952;2023-09-12T07:41:44;24.45;;;12.93;;
17283;SDS011;8760;52.248;20.952;2023-09-12T07:44:11;18.33;;;13.40;;
17283;SDS011;8760;52.248;20.952;2023-09-12T07:46:41;17.08;;;13.30;;
17283;SDS011;8760;52.248;20.952;2023-09-12T07:49:09;21.25;;;12.63;;
17283;SDS011;8760;52.248;20.952;2023-09-12T07:51:36;21.70;;;12.77;;
17283;SDS011;8760;52.248;20.952;2023-09-12T07:54:03;20.40;;;12.52;;
17283;SDS011;8760;52.248;20.952;2023-09-12T07:56:30;14.80;;;12.13;;
17283;SDS011;8760;52.248;20.952;2023-09-12T07:58:57;19.13;;;11.80;;
17283;SDS011;8760;52.248;20.952;2023-09-12T08:01:25;25.25;;;12.95;;
17283;SDS011;8760;52.248;20.952;2023-09-12T08:03:54;20.70;;;11.40;;
17283;SDS011;8760;52.248;20.952;2023-09-12T08:06:20;20.30;;;11.48;;
17283;SDS011;8760;52.248;20.952;2023-09-12T08:08:49;17.13;;;11.32;;
17283;SDS011;8760;52.248;20.952;2023-09-12T08:11:16;16.77;;;11.55;;
17283;SDS011;8760;52.248;20.952;2023-09-12T08:13:45;20.35;;;11.40;;
17283;SDS011;8760;52.248;20.952;2023-09-12T08:16:14;19.98;;;11.90;;
17283;SDS011;8760;52.248;20.952;2023-09-12T08:18:41;19.45;;;12.10;;
17283;SDS011;8760;52.248;20.952;2023-09-12T08:21:11;25.67;;;12.65;;
17283;SDS011;8760;52.248;20.952;2023-09-12T08:23:37;27.80;;;13.27;;
17283;SDS011;8760;52.248;20.952;2023-09-12T08:26:05;20.80;;;12.32;;
17283;SDS011;8760;52.248;20.952;2023-09-12T08:28:32;17.63;;;12.00;;
17283;SDS011;8760;52.248;20.952;2023-09-12T08:30:59;16.15;;;11.18;;
17283;SDS011;8760;52.248;20.952;2023-09-12T08:33:27;16.73;;;11.80;;
17283;SDS011;8760;52.248;20.952;2023-09-12T08:35:54;16.33;;;11.50;;
17283;SDS011;8760;52.248;20.952;2023-09-12T08:38:22;19.75;;;11.77;;
17283;SDS011;8760;52.248;20.952;2023-09-12T08:40:49;22.88;;;11.77;;
17283;SDS011;8760;52.248;20.952;2023-09-12T08:43:17;26.42;;;12.52;;
17283;SDS011;8760;52.248;20.952;2023-09-12T08:45:45;18.20;;;12.65;;
17283;SDS011;8760;52.248;20.952;2023-09-12T08:48:12;17.58;;;12.73;;
17283;SDS011;8760;52.248;20.952;2023-09-12T08:50:41;20.10;;;10.93;;
17283;SDS011;8760;52.248;20.952;2023-09-12T08:53:09;17.05;;;11.52;;
17283;SDS011;8760;52.248;20.952;2023-09-12T08:55:38;17.38;;;11.10;;
17283;SDS011;8760;52.248;20.952;2023-09-12T08:58:05;18.95;;;10.73;;
17283;SDS011;8760;52.248;20.952;2023-09-12T09:00:32;15.50;;;11.40;;
17283;SDS011;8760;52.248;20.952;2023-09-12T09:03:00;16.05;;;11.35;;
17283;SDS011;8760;52.248;20.952;2023-09-12T09:05:31;13.90;;;10.65;;
17283;SDS011;8760;52.248;20.952;2023-09-12T09:08:00;16.77;;;10.38;;
17283;SDS011;8760;52.248;20.952;2023-09-12T09:10:29;15.73;;;10.18;;
17283;SDS011;8760;52.248;20.952;2023-09-12T09:12:59;14.18;;;10.55;;
17283;SDS011;8760;52.248;20.952;2023-09-12T09:15:26;18.42;;;10.40;;
17283;SDS011;8760;52.248;20.952;2023-09-12T09:17:55;11.98;;;9.73;;
17283;SDS011;8760;52.248;20.952;2023-09-12T09:20:26;11.05;;;9.30;;
17283;SDS011;8760;52.248;20.952;2023-09-12T09:22:58;14.70;;;9.05;;
17283;SDS011;8760;52.248;20.952;2023-09-12T09:25:28;15.07;;;8.85;;
17283;SDS011;8760;52.248;20.952;2023-09-12T09:27:56;11.32;;;10.07;;
17283;SDS011;8760;52.248;20.952;2023-09-12T09:30:40;15.27;;;9.35;;
17283;SDS011;8760;52.248;20.952;2023-09-12T09:33:08;13.32;;;9.32;;
17283;SDS011;8760;52.248;20.952;2023-09-12T09:35:36;12.68;;;9.13;;
17283;SDS011;8760;52.248;20.952;2023-09-12T09:38:06;11.98;;;9.40;;
17283;SDS011;8760;52.248;20.952;2023-09-12T09:40:33;13.23;;;8.68;;
17283;SDS011;8760;52.248;20.952;2023-09-12T09:43:01;14.05;;;9.27;;
17283;SDS011;8760;52.248;20.952;2023-09-12T09:45:30;18.42;;;15.15;;
17283;SDS011;8760;52.248;20.952;2023-09-12T09:48:03;13.10;;;9.52;;
17283;SDS011;8760;52.248;20.952;2023-09-12T09:50:33;12.23;;;9.70;;
17283;SDS011;8760;52.248;20.952;2023-09-12T09:53:02;10.40;;;9.38;;
17283;SDS011;8760;52.248;20.952;2023-09-12T09:55:33;16.80;;;8.70;;
17283;SDS011;8760;52.248;20.952;2023-09-12T09:58:00;11.45;;;9.07;;
17283;SDS011;8760;52.248;20.952;2023-09-12T10:00:28;14.85;;;9.48;;
17283;SDS011;8760;52.248;20.952;2023-09-12T10:02:59;14.48;;;9.52;;
17283;SDS011;8760;52.248;20.952;2023-09-12T10:05:31;12.38;;;9.18;;
17283;SDS011;8760;52.248;20.952;2023-09-12T10:07:59;12.02;;;9.38;;
17283;SDS011;8760;52.248;20.952;2023-09-12T10:10:30;11.75;;;9.35;;
17283;SDS011;8760;52.248;20.952;2023-09-12T10:13:00;13.57;;;9.50;;
17283;SDS011;8760;52.248;20.952;2023-09-12T10:15:30;12.05;;;8.77;;
17283;SDS011;8760;52.248;20.952;2023-09-12T10:18:02;9.50;;;8.57;;
17283;SDS011;8760;52.248;20.952;2023-09-12T10:20:33;10.27;;;9.10;;
17283;SDS011;8760;52.248;20.952;2023-09-12T10:23:06;12.48;;;8.90;;
17283;SDS011;8760;52.248;20.952;2023-09-12T10:25:37;12.70;;;10.70;;
17283;SDS011;8760;52.248;20.952;2023-09-12T10:28:04;12.43;;;8.95;;
17283;SDS011;8760;52.248;20.952;2023-09-12T10:30:32;10.15;;;9.15;;
17283;SDS011;8760;52.248;20.952;2023-09-12T10:33:02;10.32;;;9.32;;
17283;SDS011;8760;52.248;20.952;2023-09-12T10:35:30;11.98;;;9.77;;
17283;SDS011;8760;52.248;20.952;2023-09-12T10:37:59;11.65;;;9.45;;
17283;SDS011;8760;52.248;20.952;2023-09-12T10:40:29;9.77;;;8.75;;
17283;SDS011;8760;52.248;20.952;2023-09-12T10:42:58;11.38;;;8.90;;
17283;SDS011;8760;52.248;20.952;2023-09-12T10:45:28;9.98;;;8.60;;
17283;SDS011;8760;52.248;20.952;2023-09-12T10:47:57;13.00;;;9.32;;
17283;SDS011;8760;52.248;20.952;2023-09-12T10:50:26;12.73;;;9.65;;
17283;SDS011;8760;52.248;20.952;2023-09-12T10:52:54;11.57;;;9.15;;
17283;SDS011;8760;52.248;20.952;2023-09-12T10:55:22;13.15;;;9.48;;
17283;SDS011;8760;52.248;20.952;2023-09-12T10:58:02;11.50;;;9.88;;
17283;SDS011;8760;52.248;20.952;2023-09-12T11:00:30;10.75;;;9.40;;
17283;SDS011;8760;52.248;20.952;2023-09-12T11:02:59;15.27;;;9.75;;
17283;SDS011;8760;52.248;20.952;2023-09-12T11:05:52;11.18;;;10.07;;
17283;SDS011;8760;52.248;20.952;2023-09-12T11:08:20;11.98;;;9.52;;
17283;SDS011;8760;52.248;20.952;2023-09-12T11:13:46;12.18;;;9.63;;
17283;SDS011;8760;52.248;20.952;2023-09-12T11:16:13;11.82;;;9.80;;
17283;SDS011;8760;52.248;20.952;2023-09-12T11:21:41;13.27;;;9.77;;
17283;SDS011;8760;52.248;20.952;2023-09-12T11:24:09;14.68;;;10.10;;
17283;SDS011;8760;52.248;20.952;2023-09-12T11:26:47;13.82;;;9.95;;
17283;SDS011;8760;52.248;20.952;2023-09-12T11:29:28;12.65;;;9.38;;
17283;SDS011;8760;52.248;20.952;2023-09-12T11:32:02;10.50;;;9.52;;
17283;SDS011;8760;52.248;20.952;2023-09-12T11:34:30;11.32;;;9.52;;
17283;SDS011;8760;52.248;20.952;2023-09-12T11:37:05;10.80;;;9.75;;
17283;SDS011;8760;52.248;20.952;2023-09-12T11:39:33;11.35;;;9.00;;
17283;SDS011;8760;52.248;20.952;2023-09-12T11:42:02;11.35;;;10.25;;
17283;SDS011;8760;52.248;20.952;2023-09-12T11:44:30;10.68;;;9.55;;
17283;SDS011;8760;52.248;20.952;2023-09-12T11:46:59;12.90;;;10.98;;
17283;SDS011;8760;52.248;20.952;2023-09-12T11:49:28;11.45;;;9.85;;
17283;SDS011;8760;52.248;20.952;2023-09-12T11:52:02;11.80;;;9.55;;
17283;SDS011;8760;52.248;20.952;2023-09-12T11:54:32;15.75;;;10.02;;
17283;SDS011;8760;52.248;20.952;2023-09-12T11:56:59;13.50;;;10.50;;
17283;SDS011;8760;52.248;20.952;2023-09-12T11:59:28;13.07;;;10.20;;
17283;SDS011;8760;52.248;20.952;2023-09-12T12:01:55;15.80;;;10.07;;
17283;SDS011;8760;52.248;20.952;2023-09-12T12:04:23;14.07;;;10.30;;
17283;SDS011;8760;52.248;20.952;2023-09-12T12:06:51;12.98;;;11.65;;
17283;SDS011;8760;52.248;20.952;2023-09-12T12:09:19;11.85;;;10.32;;
17283;SDS011;8760;52.248;20.952;2023-09-12T12:11:47;10.60;;;9.70;;
17283;SDS011;8760;52.248;20.952;2023-09-12T12:14:15;11.88;;;10.15;;
17283;SDS011;8760;52.248;20.952;2023-09-12T12:16:44;12.30;;;10.80;;
17283;SDS011;8760;52.248;20.952;2023-09-12T12:19:12;12.88;;;10.75;;
17283;SDS011;8760;52.248;20.952;2023-09-12T12:21:40;14.93;;;13.43;;
17283;SDS011;8760;52.248;20.952;2023-09-12T12:24:09;15.50;;;9.63;;
17283;SDS011;8760;52.248;20.952;2023-09-12T12:26:40;16.35;;;10.15;;
17283;SDS011;8760;52.248;20.952;2023-09-12T12:29:09;11.60;;;9.48;;
17283;SDS011;8760;52.248;20.952;2023-09-12T12:31:38;12.88;;;9.82;;
17283;SDS011;8760;52.248;20.952;2023-09-12T12:34:05;11.10;;;9.35;;
17283;SDS011;8760;52.248;20.952;2023-09-12T12:36:32;14.07;;;10.85;;
17283;SDS011;8760;52.248;20.952;2023-09-12T12:39:06;13.43;;;9.55;;
17283;SDS011;8760;52.248;20.952;2023-09-12T12:41:36;13.13;;;10.63;;
17283;SDS011;8760;52.248;20.952;2023-09-12T12:44:03;12.00;;;9.85;;
17283;SDS011;8760;52.248;20.952;2023-09-12T12:46:33;12.57;;;10.10;;
17283;SDS011;8760;52.248;20.952;2023-09-12T12:49:00;14.35;;;10.65;;
17283;SDS011;8760;52.248;20.952;2023-09-12T12:51:28;11.50;;;9.90;;
17283;SDS011;8760;52.248;20.952;2023-09-12T12:53:55;11.63;;;10.43;;
17283;SDS011;8760;52.248;20.952;2023-09-12T12:56:29;14.63;;;10.48;;
17283;SDS011;8760;52.248;20.952;2023-09-12T12:58:57;11.77;;;10.15;;
17283;SDS011;8760;52.248;20.952;2023-09-12T13:01:27;15.20;;;10.25;;
17283;SDS011;8760;52.248;20.952;2023-09-12T13:03:56;12.60;;;10.23;;
17283;SDS011;8760;52.248;20.952;2023-09-12T13:06:23;12.30;;;10.90;;
17283;SDS011;8760;52.248;20.952;2023-09-12T13:08:52;12.80;;;10.23;;
17283;SDS011;8760;52.248;20.952;2023-09-12T13:11:19;11.75;;;10.55;;
17283;SDS011;8760;52.248;20.952;2023-09-12T13:13:46;17.77;;;10.48;;
17283;SDS011;8760;52.248;20.952;2023-09-12T13:16:15;16.60;;;10.52;;
17283;SDS011;8760;52.248;20.952;2023-09-12T13:18:42;11.75;;;10.55;;
17283;SDS011;8760;52.248;20.952;2023-09-12T13:21:10;11.15;;;10.02;;
17283;SDS011;8760;52.248;20.952;2023-09-12T13:23:38;13.07;;;10.30;;
17283;SDS011;8760;52.248;20.952;2023-09-12T13:26:06;11.05;;;9.85;;
17283;SDS011;8760;52.248;20.952;2023-09-12T13:28:34;17.15;;;11.45;;
17283;SDS011;8760;52.248;20.952;2023-09-12T13:31:01;15.30;;;10.25;;
17283;SDS011;8760;52.248;20.952;2023-09-12T13:33:28;13.35;;;10.13;;
17283;SDS011;8760;52.248;20.952;2023-09-12T13:35:55;11.30;;;10.23;;
17283;SDS011;8760;52.248;20.952;2023-09-12T13:38:23;10.30;;;9.30;;
17283;SDS011;8760;52.248;20.952;2023-09-12T13:40:50;11.45;;;9.82;;
17283;SDS011;8760;52.248;20.952;2023-09-12T13:43:17;11.50;;;10.07;;
17283;SDS011;8760;52.248;20.952;2023-09-12T13:45:45;12.05;;;10.05;;
17283;SDS011;8760;52.248;20.952;2023-09-12T13:48:12;16.67;;;10.48;;
17283;SDS011;8760;52.248;20.952;2023-09-12T13:50:38;13.02;;;9.98;;
17283;SDS011;8760;52.248;20.952;2023-09-12T13:53:08;11.38;;;10.27;;
17283;SDS011;8760;52.248;20.952;2023-09-12T13:55:36;10.15;;;9.20;;
17283;SDS011;8760;52.248;20.952;2023-09-12T13:58:03;12.35;;;9.60;;
17283;SDS011;8760;52.248;20.952;2023-09-12T14:00:31;12.30;;;10.25;;
17283;SDS011;8760;52.248;20.952;2023-09-12T14:03:00;15.00;;;9.93;;
17283;SDS011;8760;52.248;20.952;2023-09-12T14:05:27;15.75;;;10.23;;
17283;SDS011;8760;52.248;20.952;2023-09-12T14:07:54;11.38;;;10.27;;
17283;SDS011;8760;52.248;20.952;2023-09-12T14:10:21;11.95;;;10.00;;
17283;SDS011;8760;52.248;20.952;2023-09-12T14:12:49;10.60;;;9.63;;
17283;SDS011;8760;52.248;20.952;2023-09-12T14:15:16;14.90;;;10.40;;
17283;SDS011;8760;52.248;20.952;2023-09-12T14:17:43;11.68;;;10.10;;
17283;SDS011;8760;52.248;20.952;2023-09-12T14:20:10;11.65;;;10.45;;
17283;SDS011;8760;52.248;20.952;2023-09-12T14:22:40;13.95;;;10.32;;
17283;SDS011;8760;52.248;20.952;2023-09-12T14:25:08;14.10;;;10.38;;
17283;SDS011;8760;52.248;20.952;2023-09-12T14:27:39;15.90;;;11.32;;
17283;SDS011;8760;52.248;20.952;2023-09-12T14:30:09;14.15;;;10.85;;
17283;SDS011;8760;52.248;20.952;2023-09-12T14:32:37;11.45;;;10.35;;
17283;SDS011;8760;52.248;20.952;2023-09-12T14:35:04;11.68;;;10.57;;
17283;SDS011;8760;52.248;20.952;2023-09-12T14:37:32;16.00;;;10.95;;